Time;durP1;ratioP1;P1;durP2;ratioP2;P2;SDS_P1;SDS_P2;PMS_P1;PMS_P2;Temp;Humidity;BMP_temperature;BMP_pressure;BME280_temperature;BME280_humidity;BME280_pressure;Samples;Min_cycle;Max_cycle;Signal;HPM_P1;HPM_P2
2022/01/27 00:04:49;;;;;;;41.90;21.08;;;;;;;;;;5092940;27;97172;-79
2022/01/27 00:07:16;;;;;;;41.65;20.30;;;;;;;;;;5084684;27;97346;-79
2022/01/27 00:09:49;;;;;;;44.10;21.27;;;;;;;;;;5095591;27;95400;-77
2022/01/27 00:12:18;;;;;;;46.17;21.70;;;;;;;;;;5092076;27;97928;-79
2022/01/27 00:14:47;;;;;;;40.63;21.73;;;;;;;;;;5093833;27;95202;-77
2022/01/27 00:17:15;;;;;;;40.85;21.65;;;;;;;;;;5092836;27;95779;-79
2022/01/27 00:19:42;;;;;;;38.20;20.70;;;;;;;;;;5092286;27;96144;-78
2022/01/27 00:22:09;;;;;;;43.38;21.83;;;;;;;;;;5093062;27;95298;-78
2022/01/27 00:24:35;;;;;;;44.95;21.60;;;;;;;;;;5086124;27;96603;-79
2022/01/27 00:27:02;;;;;;;42.50;21.80;;;;;;;;;;5078514;27;99298;-79
2022/01/27 00:29:28;;;;;;;41.75;20.67;;;;;;;;;;5084001;27;96309;-78
2022/01/27 00:31:54;;;;;;;42.92;20.50;;;;;;;;;;5095647;27;96803;-75
2022/01/27 00:34:21;;;;;;;45.13;21.10;;;;;;;;;;5094747;27;95220;-78
2022/01/27 00:36:47;;;;;;;40.88;20.80;;;;;;;;;;5094042;27;97204;-78
2022/01/27 00:39:14;;;;;;;41.53;19.83;;;;;;;;;;5092290;27;97348;-76
2022/01/27 00:41:40;;;;;;;41.35;19.38;;;;;;;;;;5092367;27;95310;-77
2022/01/27 00:44:06;;;;;;;39.75;20.23;;;;;;;;;;5092937;27;97048;-76
2022/01/27 00:46:36;;;;;;;37.88;19.10;;;;;;;;;;5089124;27;97789;-77
2022/01/27 00:49:02;;;;;;;40.53;20.20;;;;;;;;;;5073478;27;96501;-77
2022/01/27 00:51:35;;;;;;;39.70;19.73;;;;;;;;;;5093063;27;97093;-76
2022/01/27 00:56:38;;;;;;;43.50;19.83;;;;;;;;;;5093514;27;96789;-77
2022/01/27 01:01:55;;;;;;;38.35;19.20;;;;;;;;;;5092209;27;95099;-77
2022/01/27 01:04:27;;;;;;;41.15;20.55;;;;;;;;;;5087317;27;97008;-77
2022/01/27 01:06:54;;;;;;;;;;;;;;;;;;5093390;27;97490;-77
2022/01/27 01:13:14;;;;;;;39.20;20.38;;;;;;;;;;5093137;27;96955;-77
2022/01/27 01:14:52;;;;;;;38.00;19.10;;;;;;;;;;5080942;27;97452;-77
2022/01/27 01:20:03;;;;;;;37.13;18.52;;;;;;;;;;5092035;27;97772;-77
2022/01/27 01:30:48;;;;;;;37.72;19.13;;;;;;;;;;5095116;27;96573;-78
2022/01/27 01:33:21;;;;;;;40.38;19.30;;;;;;;;;;5094982;27;95413;-78
2022/01/27 01:35:49;;;;;;;37.58;19.67;;;;;;;;;;5090323;27;98291;-78
2022/01/27 01:38:18;;;;;;;37.58;18.65;;;;;;;;;;5095291;27;96960;-79
2022/01/27 01:40:48;;;;;;;39.50;19.40;;;;;;;;;;5098586;27;96824;-78
2022/01/27 01:43:15;;;;;;;33.50;18.38;;;;;;;;;;5095771;27;95300;-78
2022/01/27 01:45:42;;;;;;;39.45;19.20;;;;;;;;;;5078261;27;96875;-79
2022/01/27 01:48:09;;;;;;;37.90;18.80;;;;;;;;;;5095464;27;96287;-80
2022/01/27 01:50:35;;;;;;;40.08;20.42;;;;;;;;;;5095496;27;95355;-77
2022/01/27 01:53:02;;;;;;;39.70;19.45;;;;;;;;;;5093978;27;96763;-78
2022/01/27 01:55:30;;;;;;;48.08;20.92;;;;;;;;;;5093595;27;97542;-78
2022/01/27 01:57:57;;;;;;;41.42;20.17;;;;;;;;;;5093888;27;95321;-77
2022/01/27 02:00:24;;;;;;;39.35;20.77;;;;;;;;;;5098185;27;97140;-77
2022/01/27 02:02:51;;;;;;;39.58;19.60;;;;;;;;;;5094580;27;95344;-77
2022/01/27 02:05:19;;;;;;;36.83;19.05;;;;;;;;;;5095208;27;96627;-77
2022/01/27 02:08:14;;;;;;;47.90;20.77;;;;;;;;;;5095439;27;97233;-76
2022/01/27 02:19:13;;;;;;;37.13;19.20;;;;;;;;;;5095322;27;95261;-77
2022/01/27 02:21:47;;;;;;;39.58;19.52;;;;;;;;;;5095102;27;96848;-76
2022/01/27 02:24:13;;;;;;;43.22;20.38;;;;;;;;;;5097036;27;96783;-78
2022/01/27 02:26:41;;;;;;;38.45;19.58;;;;;;;;;;5095602;27;96097;-79
2022/01/27 02:29:07;;;;;;;35.80;19.63;;;;;;;;;;5092459;27;96576;-78
2022/01/27 02:31:34;;;;;;;41.28;20.02;;;;;;;;;;5090221;27;96356;-77
2022/01/27 02:34:01;;;;;;;44.05;20.65;;;;;;;;;;5094653;27;97160;-78
2022/01/27 02:36:27;;;;;;;37.58;19.25;;;;;;;;;;5092767;27;97741;-78
2022/01/27 02:38:54;;;;;;;40.33;20.88;;;;;;;;;;5093826;27;95416;-78
2022/01/27 02:41:21;;;;;;;43.22;20.48;;;;;;;;;;5092642;27;96330;-78
2022/01/27 02:43:48;;;;;;;41.78;21.73;;;;;;;;;;5095014;27;97363;-78
2022/01/27 02:46:21;;;;;;;45.75;21.23;;;;;;;;;;5097793;27;95391;-77
2022/01/27 02:48:48;;;;;;;42.42;20.45;;;;;;;;;;5094190;27;97413;-75
2022/01/27 02:51:14;;;;;;;40.83;21.80;;;;;;;;;;5093800;27;95777;-79
2022/01/27 02:53:41;;;;;;;42.88;21.13;;;;;;;;;;5094481;27;96143;-78
2022/01/27 02:56:07;;;;;;;39.63;20.60;;;;;;;;;;5095376;27;95126;-77
2022/01/27 02:58:34;;;;;;;36.85;20.20;;;;;;;;;;5094850;27;95550;-77
2022/01/27 03:01:00;;;;;;;39.45;20.27;;;;;;;;;;5095516;27;97169;-78
2022/01/27 03:03:27;;;;;;;42.50;20.70;;;;;;;;;;5094412;27;97669;-79
2022/01/27 03:05:54;;;;;;;45.92;22.70;;;;;;;;;;5076269;27;95356;-78
2022/01/27 03:08:20;;;;;;;38.45;20.58;;;;;;;;;;5097563;27;96874;-75
2022/01/27 03:10:53;;;;;;;43.22;20.35;;;;;;;;;;5094937;27;95310;-76
2022/01/27 03:13:19;;;;;;;41.88;21.70;;;;;;;;;;5085179;27;96384;-79
2022/01/27 03:15:46;;;;;;;42.15;20.23;;;;;;;;;;5093882;27;96085;-78
2022/01/27 03:18:12;;;;;;;41.70;21.30;;;;;;;;;;5094067;27;95349;-78
2022/01/27 03:20:39;;;;;;;41.83;20.58;;;;;;;;;;5093967;27;96805;-77
2022/01/27 03:23:09;;;;;;;40.45;20.50;;;;;;;;;;5088865;27;97611;-78
2022/01/27 03:25:36;;;;;;;42.55;20.88;;;;;;;;;;5093525;27;95294;-77
2022/01/27 03:28:03;;;;;;;43.63;20.75;;;;;;;;;;5093476;27;96895;-78
2022/01/27 03:30:30;;;;;;;46.58;22.15;;;;;;;;;;5097086;27;96057;-78
2022/01/27 03:32:56;;;;;;;41.97;21.70;;;;;;;;;;5093493;27;96763;-78
2022/01/27 03:35:22;;;;;;;46.22;20.58;;;;;;;;;;5092855;27;97262;-77
2022/01/27 03:37:49;;;;;;;36.10;19.92;;;;;;;;;;5094357;27;95361;-78
2022/01/27 03:40:15;;;;;;;48.08;21.85;;;;;;;;;;5093505;27;96871;-78
2022/01/27 03:42:50;;;;;;;46.13;21.48;;;;;;;;;;5091292;27;97403;-77
2022/01/27 03:45:17;;;;;;;45.28;20.23;;;;;;;;;;5092508;27;96251;-77
2022/01/27 03:47:44;;;;;;;46.90;22.73;;;;;;;;;;5092705;27;96855;-76
2022/01/27 03:50:10;;;;;;;38.38;20.65;;;;;;;;;;5093846;27;96088;-77
2022/01/27 03:52:37;;;;;;;44.33;21.25;;;;;;;;;;5095939;27;95312;-78
2022/01/27 03:55:03;;;;;;;40.38;21.75;;;;;;;;;;5092073;27;97407;-79
2022/01/27 03:57:29;;;;;;;37.60;20.40;;;;;;;;;;5075388;27;95386;-77
2022/01/27 03:59:56;;;;;;;45.25;22.50;;;;;;;;;;5091865;27;96871;-76
2022/01/27 04:02:22;;;;;;;42.13;21.40;;;;;;;;;;5087953;27;97705;-76
2022/01/27 04:04:49;;;;;;;40.95;21.25;;;;;;;;;;5089312;27;97074;-77
2022/01/27 04:07:16;;;;;;;44.10;21.98;;;;;;;;;;5091855;27;96779;-76
2022/01/27 04:09:42;;;;;;;41.08;20.77;;;;;;;;;;5092382;27;97908;-77
2022/01/27 04:12:09;;;;;;;37.33;20.92;;;;;;;;;;5095947;27;95357;-77
2022/01/27 04:14:36;;;;;;;45.17;20.60;;;;;;;;;;5092641;27;97766;-78
2022/01/27 04:17:03;;;;;;;37.42;19.90;;;;;;;;;;5092103;27;95363;-76
2022/01/27 04:19:29;;;;;;;41.47;20.10;;;;;;;;;;5093500;27;97156;-78
2022/01/27 04:21:55;;;;;;;41.60;20.75;;;;;;;;;;5093559;27;96992;-76
2022/01/27 04:24:22;;;;;;;38.72;21.08;;;;;;;;;;5073668;27;96654;-77
2022/01/27 04:26:56;;;;;;;37.80;20.05;;;;;;;;;;5093454;27;96906;-77
2022/01/27 04:29:23;;;;;;;45.20;20.52;;;;;;;;;;5092671;27;97431;-77
2022/01/27 04:31:50;;;;;;;40.22;20.55;;;;;;;;;;5090038;27;96058;-77
2022/01/27 04:34:17;;;;;;;46.70;21.45;;;;;;;;;;5092441;27;96925;-77
2022/01/27 04:36:45;;;;;;;48.22;20.50;;;;;;;;;;5092740;27;95527;-77
2022/01/27 04:39:19;;;;;;;38.28;19.63;;;;;;;;;;5092968;27;96801;-77
2022/01/27 04:42:02;;;;;;;44.03;19.52;;;;;;;;;;5092444;27;97446;-77
2022/01/27 04:44:49;;;;;;;41.88;19.35;;;;;;;;;;5091688;27;95465;-76
2022/01/27 04:47:27;;;;;;;45.28;18.63;;;;;;;;;;5087648;27;97368;-77
2022/01/27 04:49:53;;;;;;;42.50;20.10;;;;;;;;;;5092889;27;97370;-78
2022/01/27 04:52:20;;;;;;;40.60;19.00;;;;;;;;;;5091606;27;96843;-79
2022/01/27 04:55:07;;;;;;;45.83;19.33;;;;;;;;;;5093079;27;96905;-79
2022/01/27 04:57:35;;;;;;;42.22;20.33;;;;;;;;;;5096086;27;98061;-78
2022/01/27 05:00:03;;;;;;;39.78;18.27;;;;;;;;;;5092194;27;96822;-78
2022/01/27 05:02:41;;;;;;;47.22;21.30;;;;;;;;;;5091446;27;97977;-78
2022/01/27 05:05:08;;;;;;;43.58;17.77;;;;;;;;;;5089972;27;95472;-78
2022/01/27 05:07:58;;;;;;;41.67;17.48;;;;;;;;;;5093168;27;97066;-78
2022/01/27 05:10:29;;;;;;;43.65;17.88;;;;;;;;;;5091955;27;97395;-78
2022/01/27 05:13:07;;;;;;;47.63;17.13;;;;;;;;;;5091387;27;95390;-78
2022/01/27 05:15:41;;;;;;;39.85;18.17;;;;;;;;;;5091999;27;96750;-77
2022/01/27 05:18:07;;;;;;;45.67;18.77;;;;;;;;;;5092407;27;97246;-77
2022/01/27 05:20:34;;;;;;;46.05;19.17;;;;;;;;;;5096528;27;95444;-78
2022/01/27 05:23:00;;;;;;;36.53;16.58;;;;;;;;;;5077094;27;97865;-76
2022/01/27 05:25:26;;;;;;;40.05;17.65;;;;;;;;;;5094557;27;95330;-76
2022/01/27 05:27:53;;;;;;;41.10;18.63;;;;;;;;;;5093412;27;96842;-76
2022/01/27 05:30:19;;;;;;;39.28;17.05;;;;;;;;;;5092089;27;97284;-77
2022/01/27 05:32:46;;;;;;;42.83;18.38;;;;;;;;;;5090514;27;95416;-78
2022/01/27 05:35:12;;;;;;;39.38;17.48;;;;;;;;;;5081774;27;96731;-77
2022/01/27 05:37:39;;;;;;;39.00;16.13;;;;;;;;;;5086463;27;97337;-77
2022/01/27 05:40:06;;;;;;;42.78;18.30;;;;;;;;;;5089364;27;96118;-79
2022/01/27 05:42:33;;;;;;;37.47;16.10;;;;;;;;;;5094091;27;96757;-79
2022/01/27 05:45:00;;;;;;;34.00;15.05;;;;;;;;;;5090886;27;95182;-78
2022/01/27 05:47:26;;;;;;;41.08;16.17;;;;;;;;;;5088002;27;96886;-78
2022/01/27 05:49:53;;;;;;;37.60;16.52;;;;;;;;;;5089739;27;96112;-77
2022/01/27 05:52:21;;;;;;;39.53;16.15;;;;;;;;;;5091750;27;95218;-79
2022/01/27 05:54:48;;;;;;;41.33;15.70;;;;;;;;;;5091283;27;96821;-78
2022/01/27 05:57:15;;;;;;;40.28;16.48;;;;;;;;;;5092012;27;97906;-79
2022/01/27 05:59:41;;;;;;;33.67;14.93;;;;;;;;;;5090678;27;96482;-76
2022/01/27 06:02:08;;;;;;;39.63;16.40;;;;;;;;;;5091753;27;97358;-77
2022/01/27 06:04:34;;;;;;;31.95;15.38;;;;;;;;;;5094938;27;95217;-79
2022/01/27 06:07:01;;;;;;;40.47;15.13;;;;;;;;;;5074198;27;95461;-77
2022/01/27 06:09:27;;;;;;;36.50;16.17;;;;;;;;;;5095097;27;97776;-80
2022/01/27 06:11:53;;;;;;;34.03;14.40;;;;;;;;;;5095122;27;95398;-78
2022/01/27 06:14:20;;;;;;;47.22;15.82;;;;;;;;;;5095378;27;95792;-78
2022/01/27 06:16:46;;;;;;;43.95;14.65;;;;;;;;;;5094335;27;97883;-78
2022/01/27 06:19:13;;;;;;;36.50;15.75;;;;;;;;;;5095089;27;95135;-79
2022/01/27 06:21:43;;;;;;;37.63;14.30;;;;;;;;;;5077004;27;96845;-78
2022/01/27 06:24:09;;;;;;;40.30;15.55;;;;;;;;;;5097751;27;97301;-78
2022/01/27 06:26:36;;;;;;;36.33;14.48;;;;;;;;;;5094588;27;96775;-80
2022/01/27 06:29:02;;;;;;;35.22;14.25;;;;;;;;;;5087224;27;97341;-78
2022/01/27 06:31:29;;;;;;;37.95;14.77;;;;;;;;;;5093994;27;95397;-78
2022/01/27 06:33:55;;;;;;;40.70;13.95;;;;;;;;;;5094921;27;96895;-78
2022/01/27 06:36:22;;;;;;;35.50;14.05;;;;;;;;;;5093867;27;97505;-79
2022/01/27 06:38:53;;;;;;;37.83;14.77;;;;;;;;;;5094773;27;95182;-79
2022/01/27 06:41:19;;;;;;;34.88;14.00;;;;;;;;;;5094934;27;96862;-78
2022/01/27 06:43:46;;;;;;;33.88;13.95;;;;;;;;;;5093645;27;97323;-79
2022/01/27 06:46:12;;;;;;;39.53;15.23;;;;;;;;;;5094274;27;95610;-78
2022/01/27 06:48:39;;;;;;;31.50;14.13;;;;;;;;;;5094564;27;97187;-80
2022/01/27 06:51:05;;;;;;;30.27;12.77;;;;;;;;;;5094245;27;96082;-80
2022/01/27 06:53:32;;;;;;;39.50;14.48;;;;;;;;;;5094798;27;96799;-79
2022/01/27 06:55:58;;;;;;;37.33;15.23;;;;;;;;;;5092657;27;97408;-78
2022/01/27 06:58:24;;;;;;;35.35;15.25;;;;;;;;;;5092934;27;95412;-80
2022/01/27 07:00:51;;;;;;;37.03;15.30;;;;;;;;;;5094470;27;96812;-79
2022/01/27 07:03:17;;;;;;;46.08;15.35;;;;;;;;;;5094447;27;97601;-79
2022/01/27 07:05:44;;;;;;;34.72;14.95;;;;;;;;;;5093928;27;95543;-79
2022/01/27 07:08:10;;;;;;;45.58;17.05;;;;;;;;;;5096292;27;96845;-79
2022/01/27 07:10:37;;;;;;;43.28;16.67;;;;;;;;;;5094324;27;95383;-79
2022/01/27 07:13:04;;;;;;;47.97;16.85;;;;;;;;;;5089611;27;96818;-78
2022/01/27 07:15:30;;;;;;;53.80;18.08;;;;;;;;;;5093162;27;97241;-77
2022/01/27 07:17:57;;;;;;;52.30;17.63;;;;;;;;;;5093443;27;95427;-76
2022/01/27 17:18:50;;;;;;;20.58;3.47;;;;;;;;;;5055747;27;1341425;-73
2022/01/27 17:21:16;;;;;;;28.73;8.15;;;;;;;;;;5085181;27;97370;-73
2022/01/27 17:23:44;;;;;;;23.38;4.80;;;;;;;;;;5089447;27;95411;-73
2022/01/27 17:26:11;;;;;;;26.15;5.30;;;;;;;;;;5088102;27;96956;-76
2022/01/27 17:28:38;;;;;;;18.50;4.00;;;;;;;;;;5087472;27;97798;-73
2022/01/27 17:31:05;;;;;;;18.92;3.22;;;;;;;;;;5087892;27;95482;-75
2022/01/27 17:33:31;;;;;;;21.80;4.30;;;;;;;;;;5089525;27;97376;-73
2022/01/27 17:35:58;;;;;;;23.08;3.42;;;;;;;;;;5089502;27;97903;-76
2022/01/27 17:38:24;;;;;;;21.73;3.72;;;;;;;;;;5091926;27;95372;-75
2022/01/27 17:40:51;;;;;;;26.23;4.82;;;;;;;;;;5077517;27;96913;-76
2022/01/27 17:43:22;;;;;;;26.55;5.63;;;;;;;;;;5084840;27;95452;-74
2022/01/27 17:45:49;;;;;;;25.38;4.20;;;;;;;;;;5083512;27;95990;-74
2022/01/27 17:48:16;;;;;;;26.45;5.25;;;;;;;;;;5086443;27;96754;-75
2022/01/27 17:50:44;;;;;;;22.40;5.28;;;;;;;;;;5088800;27;95244;-74
2022/01/27 17:53:11;;;;;;;29.52;3.95;;;;;;;;;;5087635;27;96339;-74
2022/01/27 17:55:38;;;;;;;24.17;4.03;;;;;;;;;;5087854;27;98999;-76
2022/01/27 17:58:04;;;;;;;31.13;6.47;;;;;;;;;;5081598;27;95450;-74
2022/01/27 18:00:30;;;;;;;22.85;4.57;;;;;;;;;;5090713;27;97120;-73
2022/01/27 18:02:57;;;;;;;31.50;14.68;;;;;;;;;;5088495;27;95427;-76
2022/01/27 18:05:25;;;;;;;27.75;5.90;;;;;;;;;;5085652;27;97290;-74
2022/01/27 18:07:54;;;;;;;27.80;4.88;;;;;;;;;;5086732;27;97687;-77
2022/01/27 18:10:22;;;;;;;18.85;3.53;;;;;;;;;;5087905;27;96582;-74
2022/01/27 18:12:49;;;;;;;23.25;4.60;;;;;;;;;;5087391;27;96763;-75
2022/01/27 18:15:19;;;;;;;25.00;4.22;;;;;;;;;;5086829;27;97387;-75
2022/01/27 18:17:45;;;;;;;29.65;15.40;;;;;;;;;;5078570;27;95300;-75
2022/01/27 18:20:12;;;;;;;23.35;7.95;;;;;;;;;;5077073;27;97020;-75
2022/01/27 18:22:38;;;;;;;26.05;6.53;;;;;;;;;;5090925;27;97314;-76
2022/01/27 18:25:05;;;;;;;30.20;12.02;;;;;;;;;;5088712;27;97071;-75
2022/01/27 18:27:32;;;;;;;27.60;13.20;;;;;;;;;;5087582;27;97244;-75
2022/01/27 18:29:58;;;;;;;18.80;5.35;;;;;;;;;;5071527;27;95441;-76
2022/01/27 18:32:25;;;;;;;17.67;2.97;;;;;;;;;;5075038;27;96778;-76
2022/01/27 18:34:51;;;;;;;24.48;7.65;;;;;;;;;;5071193;27;97603;-77
2022/01/27 18:37:18;;;;;;;25.70;6.32;;;;;;;;;;5065486;27;96800;-76
2022/01/27 18:39:44;;;;;;;22.05;5.88;;;;;;;;;;5075100;27;96806;-75
2022/01/27 18:42:11;;;;;;;20.60;4.10;;;;;;;;;;5073834;27;97485;-76
2022/01/27 18:44:37;;;;;;;23.38;4.85;;;;;;;;;;5078292;27;95346;-76
2022/01/27 18:47:04;;;;;;;22.73;4.97;;;;;;;;;;5073125;27;97382;-76
2022/01/27 18:49:30;;;;;;;19.95;3.63;;;;;;;;;;5073518;27;95506;-76
2022/01/27 18:51:57;;;;;;;19.42;5.55;;;;;;;;;;5074056;27;97283;-76
2022/01/27 18:54:23;;;;;;;33.67;11.88;;;;;;;;;;5055169;27;97255;-76
2022/01/27 18:56:49;;;;;;;21.25;6.65;;;;;;;;;;5072380;27;95211;-76
2022/01/27 18:59:16;;;;;;;22.45;4.10;;;;;;;;;;5074509;27;96824;-75
2022/01/27 19:01:42;;;;;;;24.75;7.82;;;;;;;;;;5074058;27;97347;-76
2022/01/27 19:04:09;;;;;;;19.25;4.13;;;;;;;;;;5068653;27;96921;-76
2022/01/27 19:06:35;;;;;;;22.95;3.65;;;;;;;;;;5077542;27;96933;-74
2022/01/27 19:09:03;;;;;;;23.35;3.72;;;;;;;;;;5074154;27;95801;-75
2022/01/27 19:11:29;;;;;;;18.05;4.10;;;;;;;;;;5074598;27;96652;-76
2022/01/27 19:13:55;;;;;;;24.45;8.25;;;;;;;;;;5073078;27;97263;-76
2022/01/27 19:16:22;;;;;;;15.20;4.15;;;;;;;;;;5073616;27;95965;-75
2022/01/27 19:18:49;;;;;;;15.75;3.17;;;;;;;;;;5072968;27;97143;-76
2022/01/27 19:21:15;;;;;;;17.70;2.90;;;;;;;;;;5073670;27;97213;-76
2022/01/27 19:23:48;;;;;;;11.88;2.70;;;;;;;;;;5073435;27;95523;-76
2022/01/27 19:26:36;;;;;;;21.38;8.48;;;;;;;;;;5074160;27;98194;-76
2022/01/27 19:29:03;;;;;;;20.42;5.05;;;;;;;;;;5076556;27;95285;-77
2022/01/27 19:31:30;;;;;;;18.98;3.03;;;;;;;;;;5068708;27;97199;-77
2022/01/27 19:34:03;;;;;;;22.75;4.95;;;;;;;;;;5073159;27;97787;-76
2022/01/27 19:36:29;;;;;;;15.32;3.35;;;;;;;;;;5072898;27;96721;-77
2022/01/27 19:38:58;;;;;;;19.95;6.28;;;;;;;;;;5071696;27;95725;-76
2022/01/27 19:41:25;;;;;;;18.48;6.40;;;;;;;;;;5072264;27;96601;-77
2022/01/27 19:43:51;;;;;;;18.88;3.80;;;;;;;;;;5073842;27;95472;-77
2022/01/27 19:46:18;;;;;;;19.90;4.65;;;;;;;;;;5058280;27;97704;-76
2022/01/27 19:48:45;;;;;;;19.65;2.97;;;;;;;;;;5074965;27;97098;-76
2022/01/27 19:51:22;;;;;;;24.48;6.00;;;;;;;;;;5072346;27;96960;-77
2022/01/27 19:53:48;;;;;;;17.90;3.08;;;;;;;;;;5072422;27;97278;-74
2022/01/27 19:56:14;;;;;;;35.80;14.02;;;;;;;;;;5074635;27;95454;-76
2022/01/27 19:58:41;;;;;;;19.00;3.58;;;;;;;;;;5072445;27;96764;-77
2022/01/27 20:01:08;;;;;;;17.17;3.78;;;;;;;;;;5073438;27;97310;-75
2022/01/27 20:03:37;;;;;;;20.20;6.65;;;;;;;;;;5073131;27;95270;-77
2022/01/27 20:06:04;;;;;;;22.45;5.68;;;;;;;;;;5069118;27;97514;-76
2022/01/27 20:08:31;;;;;;;22.90;7.00;;;;;;;;;;5073893;27;97559;-73
2022/01/27 20:10:58;;;;;;;24.00;4.55;;;;;;;;;;5077107;27;95487;-77
2022/01/27 20:13:25;;;;;;;28.08;6.07;;;;;;;;;;5071999;27;97636;-75
2022/01/27 20:15:58;;;;;;;30.00;10.98;;;;;;;;;;5073707;27;96169;-74
2022/01/27 20:18:29;;;;;;;18.75;4.18;;;;;;;;;;5071764;27;96702;-76
2022/01/27 20:21:00;;;;;;;23.13;4.28;;;;;;;;;;5072731;27;97294;-74
2022/01/27 20:23:27;;;;;;;27.63;9.80;;;;;;;;;;5069763;27;96644;-76
2022/01/27 20:25:54;;;;;;;17.42;4.38;;;;;;;;;;5068614;27;96761;-76
2022/01/27 20:28:20;;;;;;;22.77;4.88;;;;;;;;;;5072683;27;97640;-74
2022/01/27 20:30:47;;;;;;;18.88;5.63;;;;;;;;;;5073607;27;95849;-77
2022/01/27 20:33:14;;;;;;;29.80;9.50;;;;;;;;;;5076148;27;97460;-74
2022/01/27 20:35:40;;;;;;;32.72;7.30;;;;;;;;;;5073941;27;95205;-75
2022/01/27 20:38:07;;;;;;;25.05;5.72;;;;;;;;;;5066686;27;97108;-74
2022/01/27 20:40:33;;;;;;;23.27;8.07;;;;;;;;;;5073044;27;97378;-75
2022/01/27 20:43:00;;;;;;;18.23;5.28;;;;;;;;;;5072400;27;95565;-73
2022/01/27 20:45:26;;;;;;;17.48;3.25;;;;;;;;;;5073669;27;96538;-76
2022/01/27 20:48:02;;;;;;;34.47;12.73;;;;;;;;;;5072534;27;97627;-75
2022/01/27 20:50:31;;;;;;;19.85;4.57;;;;;;;;;;5073081;27;95426;-75
2022/01/27 20:52:59;;;;;;;31.77;13.40;;;;;;;;;;5066524;27;96454;-76
2022/01/27 20:55:25;;;;;;;28.60;14.45;;;;;;;;;;5075019;27;97633;-76
2022/01/27 20:57:52;;;;;;;29.75;13.98;;;;;;;;;;5072508;27;96925;-74
2022/01/27 21:00:18;;;;;;;19.92;7.35;;;;;;;;;;5071402;27;96504;-75
2022/01/27 21:02:44;;;;;;;36.08;14.52;;;;;;;;;;5071462;27;95431;-76
2022/01/27 21:05:11;;;;;;;16.23;5.03;;;;;;;;;;5072093;27;96795;-77
2022/01/27 21:07:37;;;;;;;16.83;6.90;;;;;;;;;;5073278;27;97294;-75
2022/01/27 21:10:05;;;;;;;19.52;7.57;;;;;;;;;;5069251;27;95311;-75
2022/01/27 21:12:31;;;;;;;24.17;9.18;;;;;;;;;;5072960;27;95925;-73
2022/01/27 21:14:58;;;;;;;43.60;17.33;;;;;;;;;;5072757;27;97436;-73
2022/01/27 21:17:24;;;;;;;18.90;4.28;;;;;;;;;;5074749;27;95455;-74
2022/01/27 21:19:51;;;;;;;15.05;3.28;;;;;;;;;;5071437;27;98042;-77
2022/01/27 21:22:18;;;;;;;17.10;3.78;;;;;;;;;;5072996;27;95317;-76
2022/01/27 21:24:44;;;;;;;16.58;3.50;;;;;;;;;;5072298;27;95799;-76
2022/01/27 21:27:10;;;;;;;20.92;2.97;;;;;;;;;;5072724;27;97296;-77
2022/01/27 21:29:36;;;;;;;16.02;3.63;;;;;;;;;;5071951;27;95368;-76
2022/01/27 21:32:03;;;;;;;12.77;2.70;;;;;;;;;;5071360;27;97107;-76
2022/01/27 21:34:39;;;;;;;17.75;3.60;;;;;;;;;;5071793;27;96185;-74
2022/01/27 21:37:06;;;;;;;22.45;8.32;;;;;;;;;;5070875;27;96488;-76
2022/01/27 21:39:34;;;;;;;21.27;5.65;;;;;;;;;;5072558;27;97360;-75
2022/01/27 21:42:00;;;;;;;19.60;4.93;;;;;;;;;;5067540;27;95289;-73
2022/01/27 21:44:27;;;;;;;20.17;4.50;;;;;;;;;;5071970;27;95798;-74
2022/01/27 21:46:53;;;;;;;14.40;3.67;;;;;;;;;;5071690;27;97519;-75
2022/01/27 21:49:24;;;;;;;13.55;2.78;;;;;;;;;;5071812;27;95293;-75
2022/01/27 21:51:51;;;;;;;23.77;3.15;;;;;;;;;;5069497;27;96674;-74
2022/01/27 21:54:17;;;;;;;15.35;2.65;;;;;;;;;;5072432;27;97371;-75
2022/01/27 21:56:45;;;;;;;14.23;2.58;;;;;;;;;;5061353;27;95260;-74
2022/01/27 21:59:12;;;;;;;14.93;2.35;;;;;;;;;;5074243;27;97823;-74
2022/01/27 22:01:38;;;;;;;16.50;2.35;;;;;;;;;;5071740;27;96252;-74
2022/01/27 22:04:04;;;;;;;16.95;2.83;;;;;;;;;;5073180;27;96870;-75
2022/01/27 22:06:31;;;;;;;21.95;4.47;;;;;;;;;;5073542;27;98156;-74
2022/01/27 22:08:57;;;;;;;12.18;2.90;;;;;;;;;;5074465;27;95339;-73
2022/01/27 22:11:24;;;;;;;17.45;2.88;;;;;;;;;;5074598;27;96886;-74
2022/01/27 22:13:50;;;;;;;16.33;3.17;;;;;;;;;;5074402;27;97223;-74
2022/01/27 22:16:16;;;;;;;15.85;3.35;;;;;;;;;;5075774;27;95301;-74
2022/01/27 22:18:43;;;;;;;23.17;4.07;;;;;;;;;;5075075;27;97435;-74
2022/01/27 22:21:09;;;;;;;16.88;3.25;;;;;;;;;;5078381;27;96478;-74
2022/01/27 22:23:37;;;;;;;18.95;3.40;;;;;;;;;;5074710;27;96795;-74
2022/01/27 22:26:04;;;;;;;17.10;3.67;;;;;;;;;;5072930;27;98076;-74
2022/01/27 22:28:30;;;;;;;24.83;3.90;;;;;;;;;;5074875;27;95222;-74
2022/01/27 22:31:00;;;;;;;22.83;3.28;;;;;;;;;;5074785;27;97634;-74
2022/01/27 22:33:27;;;;;;;22.50;3.53;;;;;;;;;;5074124;27;96278;-74
2022/01/27 22:35:54;;;;;;;13.65;3.05;;;;;;;;;;5074703;27;95292;-74
2022/01/27 22:38:22;;;;;;;15.07;3.08;;;;;;;;;;5075059;27;96816;-75
2022/01/27 22:40:49;;;;;;;17.58;3.28;;;;;;;;;;5074090;27;97390;-74
2022/01/27 22:43:15;;;;;;;19.55;3.25;;;;;;;;;;5078456;27;95297;-74
2022/01/27 22:45:41;;;;;;;21.52;3.25;;;;;;;;;;5073404;27;97207;-74
2022/01/27 22:48:08;;;;;;;25.40;5.25;;;;;;;;;;5072463;27;95374;-74
2022/01/27 22:50:34;;;;;;;21.83;5.85;;;;;;;;;;5074447;27;96907;-76
2022/01/27 22:53:01;;;;;;;20.60;4.70;;;;;;;;;;5066536;27;98813;-75
2022/01/27 22:55:28;;;;;;;21.40;4.30;;;;;;;;;;5074346;27;95535;-74
2022/01/27 22:57:54;;;;;;;21.83;4.75;;;;;;;;;;5074561;27;97186;-77
2022/01/27 23:00:25;;;;;;;25.08;3.30;;;;;;;;;;5075049;27;97290;-74
2022/01/27 23:02:52;;;;;;;21.92;3.50;;;;;;;;;;5074127;27;96280;-74
2022/01/27 23:05:19;;;;;;;17.33;2.47;;;;;;;;;;5075234;27;96789;-74
2022/01/27 23:07:47;;;;;;;18.52;3.20;;;;;;;;;;5074428;27;95277;-74
2022/01/27 23:10:14;;;;;;;20.15;3.22;;;;;;;;;;5073436;27;96899;-74
2022/01/27 23:12:47;;;;;;;17.15;2.40;;;;;;;;;;5073462;27;97712;-73
2022/01/27 23:15:28;;;;;;;18.73;2.58;;;;;;;;;;5074285;27;95498;-76
2022/01/27 23:18:05;;;;;;;24.08;4.18;;;;;;;;;;5072186;27;96860;-74
2022/01/27 23:23:10;;;;;;;18.08;3.90;;;;;;;;;;5071791;27;95359;-77
2022/01/27 23:25:44;;;;;;;26.75;3.60;;;;;;;;;;5071235;27;96007;-74
2022/01/27 23:28:17;;;;;;;22.88;3.58;;;;;;;;;;5077347;27;97288;-77
2022/01/27 23:30:50;;;;;;;15.43;3.35;;;;;;;;;;5073017;27;96777;-76
2022/01/27 23:33:18;;;;;;;20.27;3.67;;;;;;;;;;5071920;27;97727;-75
2022/01/27 23:35:51;;;;;;;25.33;4.82;;;;;;;;;;5073692;27;95359;-74
2022/01/27 23:41:04;;;;;;;19.17;4.05;;;;;;;;;;5074388;27;97346;-76
2022/01/27 23:43:50;;;;;;;22.67;3.15;;;;;;;;;;5074097;27;95487;-74
2022/01/27 23:46:39;;;;;;;22.35;3.00;;;;;;;;;;5074345;27;96812;-74
2022/01/27 23:56:45;;;;;;;16.45;3.17;;;;;;;;;;5074067;27;95324;-75
2022/01/27 23:59:17;;;;;;;24.35;3.15;;;;;;;;;;5073550;27;97663;-74
